Time;durP1;ratioP1;P1;durP2;ratioP2;P2;SDS_P1;SDS_P2;PMS_P1;PMS_P2;Temp;Humidity;BMP_temperature;BMP_pressure;BME280_temperature;BME280_humidity;BME280_pressure;Samples;Min_cycle;Max_cycle;Signal;HPM_P1;HPM_P2
2022/07/04 00:00:30;;;;;;;1.48;0.20;;;14.10;99.90;;;;;;5031644;28;20037;-72
2022/07/04 00:02:56;;;;;;;0.95;0.20;;;14.10;99.90;;;;;;5022250;28;20038;-72
2022/07/04 00:05:22;;;;;;;0.90;0.20;;;14.10;99.90;;;;;;5029201;28;20068;-73
2022/07/04 00:07:49;;;;;;;0.90;0.20;;;14.00;99.90;;;;;;5014857;28;20037;-72
2022/07/04 00:10:22;;;;;;;0.80;0.10;;;14.00;99.90;;;;;;5031824;28;20508;-72
2022/07/04 00:12:48;;;;;;;0.80;0.20;;;14.00;99.90;;;;;;5031576;28;20041;-72
2022/07/04 00:15:15;;;;;;;1.70;0.17;;;13.90;99.90;;;;;;5020749;28;20040;-72
2022/07/04 00:17:41;;;;;;;0.90;0.20;;;13.90;99.90;;;;;;5032878;28;20470;-71
2022/07/04 00:20:09;;;;;;;1.25;0.20;;;13.80;99.90;;;;;;5030994;28;20078;-72
2022/07/04 00:22:35;;;;;;;0.77;0.20;;;13.80;99.90;;;;;;5015485;28;20469;-71
2022/07/04 00:25:01;;;;;;;1.70;0.20;;;13.70;99.90;;;;;;5014985;28;20508;-72
2022/07/04 00:27:27;;;;;;;1.83;0.20;;;13.70;99.90;;;;;;5032333;28;20025;-72
2022/07/04 00:29:53;;;;;;;2.75;0.15;;;13.70;99.90;;;;;;5020463;28;20037;-72
2022/07/04 00:32:19;;;;;;;1.15;0.20;;;13.60;99.90;;;;;;4999247;28;20033;-72
2022/07/04 00:34:44;;;;;;;0.65;0.25;;;13.60;99.90;;;;;;5020707;28;20123;-72
2022/07/04 00:37:10;;;;;;;1.33;0.22;;;13.50;99.90;;;;;;5020067;28;20042;-72
2022/07/04 00:39:36;;;;;;;1.35;0.20;;;13.50;99.90;;;;;;5031318;28;20034;-72
2022/07/04 00:42:03;;;;;;;0.73;0.20;;;13.50;99.90;;;;;;5030147;28;20112;-72
2022/07/04 00:44:31;;;;;;;0.88;0.20;;;13.50;99.90;;;;;;5021118;28;20489;-72
2022/07/04 00:46:56;;;;;;;0.63;0.17;;;13.40;99.90;;;;;;5031588;28;20255;-72
2022/07/04 00:49:22;;;;;;;0.70;0.20;;;13.50;99.90;;;;;;5012364;28;20389;-72
2022/07/04 00:51:48;;;;;;;1.48;0.20;;;13.40;99.90;;;;;;5031098;28;20031;-72
2022/07/04 00:54:15;;;;;;;1.73;0.38;;;13.40;99.90;;;;;;5012451;28;20115;-72
2022/07/04 00:56:42;;;;;;;1.10;0.20;;;13.30;99.90;;;;;;5020251;28;20106;-71
2022/07/04 00:59:09;;;;;;;0.93;0.25;;;13.30;99.90;;;;;;5026400;28;20037;-71
2022/07/04 01:01:35;;;;;;;0.93;0.20;;;13.20;99.90;;;;;;5014071;28;20021;-72
2022/07/04 01:04:02;;;;;;;1.92;0.30;;;13.20;99.90;;;;;;5011207;28;20037;-72
2022/07/04 01:06:28;;;;;;;1.88;0.30;;;13.10;99.90;;;;;;5019729;28;20053;-71
2022/07/04 01:08:54;;;;;;;0.80;0.20;;;13.10;99.90;;;;;;5031369;28;20060;-71
2022/07/04 01:11:20;;;;;;;1.77;0.30;;;13.10;99.90;;;;;;5021653;28;20115;-72
2022/07/04 01:13:46;;;;;;;0.80;0.30;;;13.10;99.90;;;;;;5031043;28;20031;-72
2022/07/04 01:16:13;;;;;;;1.10;0.30;;;13.00;99.90;;;;;;5019095;28;20021;-72
2022/07/04 01:18:40;;;;;;;1.33;0.30;;;13.00;99.90;;;;;;5030459;28;20033;-74
2022/07/04 01:21:06;;;;;;;1.52;0.30;;;13.00;99.90;;;;;;5012726;28;20025;-72
2022/07/04 01:23:32;;;;;;;1.73;0.63;;;13.10;99.90;;;;;;5012040;28;20033;-73
2022/07/04 01:25:59;;;;;;;1.35;0.30;;;13.10;99.90;;;;;;5019293;28;20028;-72
2022/07/04 01:28:25;;;;;;;1.27;0.35;;;13.10;99.90;;;;;;5020612;28;20025;-71
2022/07/04 01:30:51;;;;;;;0.65;0.30;;;13.00;99.90;;;;;;5030544;28;20030;-72
2022/07/04 01:33:17;;;;;;;1.83;0.40;;;13.00;99.90;;;;;;5014911;28;20056;-72
2022/07/04 01:35:44;;;;;;;1.08;0.40;;;13.00;99.90;;;;;;5031997;28;20536;-71
2022/07/04 01:38:10;;;;;;;1.30;0.50;;;13.00;99.90;;;;;;5032176;28;20473;-72
2022/07/04 01:40:36;;;;;;;1.60;0.40;;;13.00;99.90;;;;;;5015456;28;20111;-71
2022/07/04 01:43:02;;;;;;;1.40;0.40;;;12.90;99.90;;;;;;5030488;28;20745;-71
2022/07/04 01:45:28;;;;;;;0.98;0.40;;;12.90;99.90;;;;;;5030874;28;20048;-72
2022/07/04 01:47:54;;;;;;;2.22;0.40;;;12.90;99.90;;;;;;5029656;28;20452;-75
2022/07/04 01:50:20;;;;;;;2.75;0.40;;;12.90;99.90;;;;;;5019609;28;20104;-72
2022/07/04 01:52:46;;;;;;;1.40;0.40;;;13.00;99.90;;;;;;5029264;28;20091;-72
2022/07/04 01:55:12;;;;;;;2.75;0.47;;;12.90;99.90;;;;;;5012473;28;20041;-71
2022/07/04 01:57:38;;;;;;;3.58;0.40;;;12.80;99.90;;;;;;5029826;28;20120;-72
2022/07/04 02:02:51;;;;;;;1.10;0.40;;;12.90;99.90;;;;;;5030495;28;20036;-71
2022/07/04 02:05:17;;;;;;;1.17;0.43;;;12.80;99.90;;;;;;5018906;28;20049;-72
2022/07/04 02:07:43;;;;;;;2.25;0.50;;;12.90;99.90;;;;;;5030213;28;20070;-71
2022/07/04 02:10:09;;;;;;;1.95;0.50;;;12.90;99.90;;;;;;5030530;28;20056;-71
2022/07/04 02:15:19;;;;;;;2.00;0.40;;;12.70;99.90;;;;;;5030005;28;20135;-71
2022/07/04 02:17:45;;;;;;;1.88;0.73;;;12.70;99.90;;;;;;5019602;28;20466;-71
2022/07/04 02:20:11;;;;;;;2.03;0.57;;;12.60;99.90;;;;;;5004393;28;20048;-71
2022/07/04 02:22:37;;;;;;;1.10;0.50;;;12.60;99.90;;;;;;5031332;28;20359;-71
2022/07/04 02:25:03;;;;;;;1.42;0.68;;;12.60;99.90;;;;;;5029139;28;20039;-72
2022/07/04 02:27:29;;;;;;;1.40;0.50;;;12.60;99.90;;;;;;5013457;28;20025;-72
2022/07/04 02:29:55;;;;;;;1.48;0.40;;;12.50;99.90;;;;;;5028783;28;20033;-72
2022/07/04 02:32:20;;;;;;;1.67;0.50;;;12.60;99.90;;;;;;5028896;28;20024;-72
2022/07/04 02:34:46;;;;;;;1.58;0.70;;;12.50;99.90;;;;;;5013755;28;20041;-72
2022/07/04 02:37:12;;;;;;;0.90;0.38;;;12.50;99.90;;;;;;5028420;28;20108;-72
2022/07/04 02:39:38;;;;;;;3.60;0.40;;;12.40;99.90;;;;;;5001336;28;20041;-72
2022/07/04 02:42:03;;;;;;;2.72;0.60;;;12.40;99.90;;;;;;5016984;28;20041;-72
2022/07/04 02:44:30;;;;;;;1.30;0.50;;;12.40;99.90;;;;;;5012604;28;20116;-71
2022/07/04 02:46:56;;;;;;;1.75;0.50;;;12.30;99.90;;;;;;5017062;28;20030;-71
2022/07/04 02:49:21;;;;;;;1.55;0.50;;;12.30;99.90;;;;;;5029444;28;20607;-72
2022/07/04 02:51:47;;;;;;;1.70;0.60;;;12.30;99.90;;;;;;5011348;28;20116;-72
2022/07/04 02:54:13;;;;;;;2.22;0.68;;;12.30;99.90;;;;;;5030036;28;20103;-75
2022/07/04 02:56:39;;;;;;;1.42;0.60;;;12.30;99.90;;;;;;5012442;28;20405;-72
2022/07/04 02:59:04;;;;;;;1.10;0.50;;;12.30;99.90;;;;;;5028018;28;20120;-71
2022/07/04 03:01:30;;;;;;;2.38;0.50;;;12.30;99.90;;;;;;5012746;28;20120;-72
2022/07/04 03:03:56;;;;;;;1.55;0.55;;;12.30;99.90;;;;;;5028703;28;20037;-71
2022/07/04 03:06:22;;;;;;;0.90;0.40;;;12.30;99.90;;;;;;4997033;28;20049;-72
2022/07/04 03:08:48;;;;;;;1.30;0.50;;;12.30;99.90;;;;;;5026722;28;20439;-72
2022/07/04 03:11:13;;;;;;;1.70;0.50;;;12.20;99.90;;;;;;5008016;28;20034;-71
2022/07/04 03:13:40;;;;;;;0.95;0.40;;;12.20;99.90;;;;;;5006919;28;20045;-71
2022/07/04 03:16:06;;;;;;;1.30;0.47;;;12.30;99.90;;;;;;5018851;28;20045;-72
2022/07/04 03:18:32;;;;;;;1.80;0.57;;;12.30;99.90;;;;;;5003122;28;20029;-72
2022/07/04 03:20:58;;;;;;;1.42;0.70;;;12.30;99.90;;;;;;5029091;28;20040;-71
2022/07/04 03:23:24;;;;;;;1.00;0.50;;;12.20;99.90;;;;;;5018211;28;20032;-72
2022/07/04 03:25:49;;;;;;;2.33;0.60;;;12.20;99.90;;;;;;5027922;28;20077;-72
2022/07/04 03:28:15;;;;;;;1.83;0.50;;;12.10;99.90;;;;;;5029750;28;20337;-75
2022/07/04 03:30:42;;;;;;;2.15;0.55;;;12.10;99.90;;;;;;5027695;28;20040;-72
2022/07/04 03:33:07;;;;;;;1.83;0.60;;;12.10;99.90;;;;;;5018468;28;20481;-71
2022/07/04 03:35:33;;;;;;;2.13;0.70;;;12.10;99.90;;;;;;5003160;28;20033;-72
2022/07/04 03:37:59;;;;;;;2.10;0.80;;;12.20;99.90;;;;;;5026566;28;20417;-72
2022/07/04 03:40:26;;;;;;;2.60;0.60;;;12.20;99.90;;;;;;5012750;28;20045;-73
2022/07/04 03:42:51;;;;;;;2.83;0.50;;;12.30;99.90;;;;;;5016274;28;20043;-72
2022/07/04 03:45:17;;;;;;;1.17;0.63;;;12.30;99.90;;;;;;5019701;28;20397;-72
2022/07/04 03:47:42;;;;;;;1.98;0.75;;;12.20;99.90;;;;;;4999254;28;20035;-72
2022/07/04 03:50:08;;;;;;;1.52;0.57;;;12.20;99.90;;;;;;5013287;28;20131;-72
2022/07/04 03:52:34;;;;;;;1.92;0.60;;;12.20;99.90;;;;;;5031353;28;20103;-72
2022/07/04 03:55:00;;;;;;;1.48;0.50;;;12.20;99.90;;;;;;5021387;28;20402;-72
2022/07/04 03:57:26;;;;;;;1.63;0.70;;;12.30;99.90;;;;;;5032186;28;20043;-72
2022/07/04 03:59:51;;;;;;;1.80;0.65;;;12.20;99.90;;;;;;5032843;28;20037;-73
2022/07/04 04:02:17;;;;;;;1.75;0.68;;;12.40;99.90;;;;;;5030964;28;20029;-72
2022/07/04 04:07:27;;;;;;;1.48;0.50;;;12.40;99.90;;;;;;5015666;28;20489;-72
2022/07/04 04:09:53;;;;;;;1.77;0.70;;;12.50;99.90;;;;;;5031369;28;20397;-72
2022/07/04 04:12:18;;;;;;;2.30;0.73;;;12.50;99.90;;;;;;5032244;28;20024;-72
2022/07/04 04:14:44;;;;;;;2.53;0.82;;;12.50;99.90;;;;;;5021263;28;20466;-74
2022/07/04 04:17:10;;;;;;;3.92;0.77;;;12.60;99.90;;;;;;5032827;28;20613;-72
2022/07/04 04:19:36;;;;;;;1.80;0.70;;;12.60;99.90;;;;;;5031508;28;20481;-72
2022/07/04 04:22:01;;;;;;;2.13;1.05;;;12.70;99.90;;;;;;5003087;28;20025;-72
2022/07/04 04:24:27;;;;;;;2.10;1.00;;;12.70;99.90;;;;;;5030997;28;20584;-78
2022/07/04 04:26:53;;;;;;;1.80;0.85;;;12.80;99.90;;;;;;5017213;28;20033;-72
2022/07/04 04:29:18;;;;;;;2.70;0.93;;;12.90;99.90;;;;;;5032014;28;20116;-72
2022/07/04 04:31:44;;;;;;;2.17;0.95;;;13.00;99.90;;;;;;5030927;28;20052;-72
2022/07/04 04:34:10;;;;;;;2.35;1.05;;;13.00;99.90;;;;;;5030871;28;20091;-72
2022/07/04 04:36:36;;;;;;;1.60;0.88;;;13.10;99.90;;;;;;5013972;28;20524;-71
2022/07/04 04:39:02;;;;;;;2.83;0.80;;;13.20;99.90;;;;;;5019819;28;20029;-73
2022/07/04 04:41:27;;;;;;;2.47;1.33;;;13.40;99.90;;;;;;5031034;28;20032;-72
2022/07/04 04:43:53;;;;;;;2.53;1.27;;;13.50;99.90;;;;;;5019449;28;20047;-72
2022/07/04 04:46:20;;;;;;;3.20;1.40;;;13.60;99.90;;;;;;5031440;28;20041;-75
2022/07/04 04:48:45;;;;;;;3.40;1.48;;;13.80;99.90;;;;;;5018792;28;21964;-72
2022/07/04 04:51:11;;;;;;;3.17;1.20;;;14.00;99.90;;;;;;5019684;28;20132;-72
2022/07/04 04:53:36;;;;;;;3.85;1.50;;;14.10;99.90;;;;;;5031549;28;20037;-72
2022/07/04 04:56:02;;;;;;;3.75;1.17;;;14.20;99.90;;;;;;5027307;28;20037;-72
2022/07/04 04:58:28;;;;;;;2.72;1.60;;;14.40;99.90;;;;;;5014732;28;20083;-73
2022/07/04 05:00:54;;;;;;;3.67;1.98;;;14.50;99.90;;;;;;5016033;28;20116;-73
2022/07/04 05:03:19;;;;;;;3.22;2.03;;;14.70;99.90;;;;;;5030780;28;20030;-72
2022/07/04 05:05:45;;;;;;;2.55;1.52;;;14.90;99.90;;;;;;5029982;28;20041;-73
2022/07/04 05:08:12;;;;;;;5.60;1.60;;;15.00;99.90;;;;;;5007505;28;20525;-72
2022/07/04 05:10:38;;;;;;;2.30;1.15;;;15.00;99.90;;;;;;5011708;28;20522;-72
2022/07/04 05:13:04;;;;;;;3.30;0.90;;;15.20;99.90;;;;;;5026115;28;20037;-75
2022/07/04 05:15:30;;;;;;;1.98;1.30;;;15.30;99.90;;;;;;5011083;28;20037;-72
2022/07/04 05:17:55;;;;;;;2.47;0.80;;;15.30;99.90;;;;;;5017157;28;20021;-72
2022/07/04 05:20:21;;;;;;;1.70;0.90;;;15.50;99.90;;;;;;5003761;28;20036;-73
2022/07/04 05:22:47;;;;;;;2.13;0.60;;;15.60;99.90;;;;;;5027246;28;20387;-72
2022/07/04 05:25:13;;;;;;;4.72;1.27;;;15.50;99.90;;;;;;5015310;28;20048;-72
2022/07/04 05:27:39;;;;;;;3.17;1.20;;;15.50;99.90;;;;;;5017023;28;20033;-73
2022/07/04 05:30:06;;;;;;;2.35;1.00;;;15.50;99.90;;;;;;5026950;28;21937;-72
2022/07/04 05:32:31;;;;;;;1.60;0.70;;;15.60;99.90;;;;;;5029612;28;20107;-72
2022/07/04 05:34:58;;;;;;;5.10;1.30;;;15.80;99.90;;;;;;5017953;28;20047;-72
2022/07/04 05:37:24;;;;;;;2.78;0.73;;;15.80;99.90;;;;;;5029820;28;20025;-72
2022/07/04 05:39:49;;;;;;;1.50;0.63;;;15.90;99.90;;;;;;5011744;28;20029;-76
2022/07/04 05:42:16;;;;;;;2.78;0.80;;;16.00;99.90;;;;;;5017862;28;20094;-73
2022/07/04 05:44:41;;;;;;;2.50;0.80;;;16.30;99.90;;;;;;5027369;28;20045;-73
2022/07/04 05:47:07;;;;;;;3.13;0.50;;;16.40;99.90;;;;;;4992829;28;20030;-73
2022/07/04 05:49:33;;;;;;;1.27;0.43;;;16.50;99.90;;;;;;5015786;28;20037;-73
2022/07/04 05:51:59;;;;;;;2.35;0.60;;;16.60;99.90;;;;;;5027780;28;20379;-73
2022/07/04 05:54:25;;;;;;;2.38;0.50;;;16.70;99.90;;;;;;5026930;28;20029;-72
2022/07/04 05:56:51;;;;;;;1.55;0.40;;;16.80;99.90;;;;;;5024962;28;20025;-73
2022/07/04 05:59:16;;;;;;;2.53;0.52;;;17.10;99.90;;;;;;5027318;28;20032;-72
2022/07/04 06:01:42;;;;;;;3.60;0.55;;;17.20;99.90;;;;;;5008979;28;20033;-72
2022/07/04 06:04:08;;;;;;;3.75;0.50;;;17.30;99.90;;;;;;5025722;28;20045;-73
2022/07/04 06:06:34;;;;;;;2.53;0.68;;;17.30;99.90;;;;;;5009452;28;20044;-72
2022/07/04 06:09:00;;;;;;;2.90;0.75;;;17.50;99.90;;;;;;5014151;28;20040;-72
2022/07/04 06:11:25;;;;;;;2.60;0.68;;;17.60;99.90;;;;;;5017016;28;20029;-72
2022/07/04 06:13:51;;;;;;;2.65;0.80;;;17.60;99.90;;;;;;5023477;28;20021;-73
2022/07/04 06:16:17;;;;;;;1.25;0.50;;;17.60;99.90;;;;;;4995206;28;20550;-72
2022/07/04 06:18:43;;;;;;;2.17;0.52;;;18.00;99.90;;;;;;5016243;28;20958;-72
2022/07/04 06:21:09;;;;;;;1.20;0.52;;;18.10;99.90;;;;;;5009067;28;20159;-72
2022/07/04 06:23:35;;;;;;;1.70;0.60;;;18.10;99.90;;;;;;5024082;28;20123;-72
2022/07/04 06:26:01;;;;;;;4.18;0.60;;;18.10;99.90;;;;;;5012572;28;20055;-72
2022/07/04 06:28:27;;;;;;;1.80;0.57;;;18.30;99.90;;;;;;5011978;28;20489;-73
2022/07/04 06:30:53;;;;;;;1.40;0.50;;;18.40;99.90;;;;;;5010647;28;20386;-72
2022/07/04 06:33:18;;;;;;;2.28;0.80;;;18.50;99.90;;;;;;5026182;28;20028;-72
2022/07/04 06:35:44;;;;;;;2.33;0.60;;;18.40;99.90;;;;;;4993965;28;20367;-72
2022/07/04 06:38:12;;;;;;;3.55;0.63;;;18.80;99.90;;;;;;5010724;28;20339;-72
2022/07/04 06:40:38;;;;;;;4.47;1.05;;;19.00;99.90;;;;;;5029176;28;20044;-72
2022/07/04 06:43:04;;;;;;;2.85;0.65;;;18.40;99.90;;;;;;5027157;28;20116;-72
2022/07/04 06:45:30;;;;;;;3.50;0.60;;;18.30;99.90;;;;;;5026979;28;20053;-72
2022/07/04 06:47:56;;;;;;;2.38;0.50;;;18.10;99.90;;;;;;5015171;28;20068;-72
2022/07/04 06:50:22;;;;;;;2.55;0.40;;;18.50;99.90;;;;;;5014500;28;20033;-73
2022/07/04 06:52:48;;;;;;;1.95;0.40;;;18.40;99.90;;;;;;5010212;28;20091;-72
2022/07/04 06:55:14;;;;;;;2.45;0.50;;;18.70;99.90;;;;;;5025634;28;20037;-72
2022/07/04 06:57:39;;;;;;;1.67;0.60;;;19.00;99.90;;;;;;5009523;28;20037;-73
2022/07/04 07:00:07;;;;;;;2.50;0.80;;;19.10;99.90;;;;;;5025881;28;20025;-73
2022/07/04 07:02:37;;;;;;;2.63;0.75;;;19.10;99.90;;;;;;5026692;28;20036;-73
2022/07/04 07:05:03;;;;;;;3.28;0.57;;;19.40;99.90;;;;;;4991470;28;20044;-73
2022/07/04 07:07:29;;;;;;;2.03;0.50;;;19.70;99.90;;;;;;5025961;28;20042;-74
2022/07/04 07:09:56;;;;;;;2.05;0.70;;;19.70;99.90;;;;;;5022801;28;20045;-73
2022/07/04 07:12:22;;;;;;;3.53;0.50;;;19.20;99.90;;;;;;5010285;28;20053;-73
2022/07/04 07:14:49;;;;;;;2.38;0.60;;;19.80;99.90;;;;;;5023430;28;20064;-73
2022/07/04 07:17:15;;;;;;;1.23;0.52;;;19.00;99.90;;;;;;5026125;28;20107;-73
2022/07/04 07:19:45;;;;;;;2.45;0.50;;;19.40;99.90;;;;;;5025702;28;20120;-74
2022/07/04 07:22:11;;;;;;;;;;;20.00;99.90;;;;;;5014709;28;20053;-73
2022/07/04 07:24:37;;;;;;;2.47;0.77;;;19.90;99.90;;;;;;5014923;28;19932;-73
2022/07/04 07:27:04;;;;;;;1.23;0.50;;;20.30;99.90;;;;;;5020233;28;20029;-73
2022/07/04 07:29:29;;;;;;;2.28;0.55;;;20.60;99.90;;;;;;5017232;28;20106;-74
2022/07/04 07:31:55;;;;;;;2.10;0.43;;;20.60;99.90;;;;;;5021162;28;20033;-74
2022/07/04 07:34:21;;;;;;;1.20;0.40;;;20.60;99.90;;;;;;5020510;28;20040;-75
2022/07/04 07:36:47;;;;;;;3.10;0.60;;;20.70;99.90;;;;;;5032890;28;20029;-74
2022/07/04 07:39:13;;;;;;;2.47;0.40;;;21.00;99.90;;;;;;5031547;28;20042;-74
2022/07/04 07:41:38;;;;;;;2.90;0.50;;;20.90;99.90;;;;;;5032156;28;20848;-74
2022/07/04 07:44:04;;;;;;;1.88;0.40;;;20.80;99.90;;;;;;5021367;28;20099;-75
2022/07/04 07:46:30;;;;;;;2.13;0.45;;;21.10;99.90;;;;;;5019405;28;20493;-75
2022/07/04 07:48:56;;;;;;;1.20;0.40;;;21.20;99.90;;;;;;5020243;28;20075;-74
2022/07/04 07:51:22;;;;;;;3.67;0.50;;;21.50;99.90;;;;;;5030686;28;20124;-78
2022/07/04 07:53:47;;;;;;;1.27;0.30;;;21.50;99.90;;;;;;5030178;28;20113;-74
2022/07/04 07:56:13;;;;;;;1.90;0.40;;;21.50;99.90;;;;;;5028100;28;20040;-75
2022/07/04 07:58:39;;;;;;;2.30;0.38;;;21.60;99.90;;;;;;5012636;28;20079;-76
2022/07/04 08:01:04;;;;;;;1.38;0.40;;;21.30;99.90;;;;;;5013850;28;20154;-74
2022/07/04 08:06:15;;;;;;;3.10;0.60;;;21.40;99.90;;;;;;5013998;28;20045;-75
2022/07/04 08:08:41;;;;;;;5.03;0.80;;;21.30;99.90;;;;;;5013948;28;20385;-75
2022/07/04 08:11:08;;;;;;;2.35;0.40;;;20.50;99.90;;;;;;5014386;28;20044;-74
2022/07/04 08:13:35;;;;;;;3.38;0.60;;;21.70;99.90;;;;;;5027810;28;20083;-75
2022/07/04 08:16:00;;;;;;;1.73;0.50;;;22.10;99.90;;;;;;5016738;28;20066;-75
2022/07/04 08:18:26;;;;;;;3.20;0.30;;;22.40;99.90;;;;;;5009173;28;20160;-74
2022/07/04 08:20:52;;;;;;;1.35;0.40;;;22.60;99.90;;;;;;5025666;28;20076;-74
2022/07/04 08:23:18;;;;;;;1.25;0.40;;;22.40;99.90;;;;;;5019612;28;20033;-74
2022/07/04 08:25:43;;;;;;;2.15;0.47;;;22.70;99.90;;;;;;5019463;28;20037;-74
2022/07/04 08:28:09;;;;;;;1.80;0.38;;;22.30;99.90;;;;;;5028167;28;20084;-74
2022/07/04 08:30:35;;;;;;;2.95;0.63;;;22.40;99.90;;;;;;5015617;28;20033;-74
2022/07/04 08:33:01;;;;;;;2.90;0.50;;;21.80;99.90;;;;;;5015775;28;20025;-74
2022/07/04 08:35:27;;;;;;;3.90;0.40;;;22.50;99.90;;;;;;5013262;28;20025;-74
2022/07/04 08:37:55;;;;;;;3.08;0.40;;;22.00;99.90;;;;;;5028803;28;20025;-74
2022/07/04 08:40:26;;;;;;;2.42;0.30;;;22.00;99.90;;;;;;5029452;28;20060;-77
2022/07/04 08:42:52;;;;;;;2.05;0.50;;;21.50;99.90;;;;;;5020665;28;20377;-74
2022/07/04 08:45:32;;;;;;;3.58;0.30;;;20.80;99.90;;;;;;5029749;28;20169;-74
2022/07/04 08:48:02;;;;;;;2.42;0.47;;;21.20;99.90;;;;;;5014203;28;20132;-76
2022/07/04 08:50:31;;;;;;;3.97;0.30;;;21.00;99.90;;;;;;5011845;28;20576;-73
2022/07/04 08:53:00;;;;;;;3.13;0.40;;;21.30;99.90;;;;;;5031546;28;20515;-75
2022/07/04 08:58:30;;;;;;;3.05;0.40;;;22.60;99.90;;;;;;5031438;28;20033;-74
2022/07/04 09:01:06;;;;;;;2.70;0.40;;;23.10;99.90;;;;;;5012088;28;20115;-74
2022/07/04 09:03:33;;;;;;;4.85;0.90;;;22.80;99.90;;;;;;5019008;28;20116;-75
2022/07/04 09:06:00;;;;;;;7.20;0.93;;;21.60;99.90;;;;;;5028013;28;20378;-74
2022/07/04 09:08:26;;;;;;;3.25;0.40;;;20.60;99.90;;;;;;5027467;28;20033;-74
2022/07/04 09:10:53;;;;;;;4.45;0.70;;;20.60;99.90;;;;;;5018145;28;20045;-74
2022/07/04 09:13:19;;;;;;;4.68;0.55;;;20.30;99.90;;;;;;5026391;28;20113;-74
2022/07/04 09:15:51;;;;;;;2.88;0.32;;;20.80;99.90;;;;;;5028528;28;20033;-74
2022/07/04 09:18:27;;;;;;;2.67;0.40;;;21.90;99.90;;;;;;5012575;28;20537;-74
2022/07/04 09:20:54;;;;;;;2.33;0.50;;;22.40;99.90;;;;;;5027270;28;20029;-74
2022/07/04 09:23:32;;;;;;;3.42;0.40;;;21.30;99.90;;;;;;4997650;28;20039;-74
2022/07/04 09:26:15;;;;;;;4.65;0.70;;;21.40;99.90;;;;;;5024772;28;20049;-74
2022/07/04 09:28:44;;;;;;;2.45;0.70;;;21.40;99.90;;;;;;5026188;28;20122;-75
2022/07/04 09:31:23;;;;;;;2.28;0.40;;;21.40;99.90;;;;;;5009894;28;20132;-74
2022/07/04 09:33:54;;;;;;;4.05;0.50;;;21.20;99.90;;;;;;4997222;28;20038;-74
2022/07/04 09:36:22;;;;;;;6.45;0.60;;;20.60;99.90;;;;;;5028751;28;20033;-74
2022/07/04 09:39:15;;;;;;;4.40;0.70;;;20.30;99.90;;;;;;5027454;28;20074;-74
2022/07/04 09:41:57;;;;;;;4.05;0.68;;;20.50;99.90;;;;;;5007976;28;21076;-75
2022/07/04 09:44:25;;;;;;;4.63;0.50;;;20.70;99.90;;;;;;5012809;28;20474;-75
2022/07/04 09:46:51;;;;;;;2.83;0.40;;;20.60;99.90;;;;;;5010355;28;20033;-74
2022/07/04 09:49:17;;;;;;;4.13;0.47;;;20.90;99.90;;;;;;5024400;28;20519;-74
2022/07/04 09:51:51;;;;;;;2.03;0.30;;;21.10;99.90;;;;;;5012064;28;22002;-74
2022/07/04 09:54:25;;;;;;;3.67;0.40;;;21.60;99.90;;;;;;5019540;28;20386;-74
2022/07/04 09:56:59;;;;;;;4.15;0.45;;;21.70;99.90;;;;;;5016436;28;20041;-75
2022/07/04 09:59:29;;;;;;;2.15;0.25;;;21.30;99.90;;;;;;5028457;28;20030;-74
2022/07/04 10:02:08;;;;;;;;;;;21.90;99.90;;;;;;5028552;28;20040;-74
2022/07/04 10:04:49;;;;;;;3.33;0.60;;;21.10;99.90;;;;;;5027935;28;19943;-74
2022/07/04 10:07:50;;;;;;;5.03;0.70;;;20.70;99.90;;;;;;5028179;28;20055;-74
2022/07/04 10:10:30;;;;;;;2.85;0.60;;;20.80;99.90;;;;;;4950463;28;20462;-75
2022/07/04 10:13:06;;;;;;;;;;;21.30;99.90;;;;;;4950684;28;20507;-75
2022/07/04 10:15:34;;;;;;;5.55;0.60;;;21.50;99.90;;;;;;4951339;28;19961;-74
2022/07/04 10:18:00;;;;;;;3.88;0.80;;;21.00;99.90;;;;;;4966938;28;20031;-74
2022/07/04 10:20:26;;;;;;;2.28;0.50;;;21.10;99.90;;;;;;4938702;28;20039;-74
2022/07/04 10:22:52;;;;;;;1.55;0.30;;;21.20;99.90;;;;;;4965093;28;20027;-74
2022/07/04 10:25:17;;;;;;;3.85;0.73;;;21.50;99.90;;;;;;4921356;28;20051;-73
2022/07/04 10:27:44;;;;;;;3.25;0.50;;;21.10;99.90;;;;;;4921527;28;20035;-75
2022/07/04 10:30:14;;;;;;;2.97;0.50;;;21.10;99.90;;;;;;4951148;28;20034;-74
2022/07/04 10:32:42;;;;;;;5.07;0.43;;;21.30;99.90;;;;;;4949863;28;20372;-74
2022/07/04 10:35:11;;;;;;;2.43;0.47;;;21.70;99.90;;;;;;4948338;28;20093;-74
2022/07/04 10:38:00;;;;;;;4.10;0.77;;;22.50;99.90;;;;;;4949505;28;20105;-74
2022/07/04 10:40:45;;;;;;;3.47;0.75;;;22.40;99.90;;;;;;4949249;28;22471;-75
2022/07/04 10:43:51;;;;;;;4.07;0.82;;;23.20;99.90;;;;;;4937229;28;20101;-74
2022/07/04 10:46:30;;;;;;;4.72;0.70;;;22.70;99.90;;;;;;4987085;28;20064;-74
2022/07/04 10:48:59;;;;;;;5.32;0.60;;;22.20;99.90;;;;;;5000332;28;20592;-74
2022/07/04 10:51:44;;;;;;;2.20;0.40;;;22.30;99.90;;;;;;5015828;28;20124;-74
2022/07/04 10:54:32;;;;;;;4.20;0.50;;;22.30;99.90;;;;;;5014872;28;20475;-76
2022/07/04 10:57:10;;;;;;;2.75;0.50;;;22.50;99.90;;;;;;5022135;28;20438;-74
2022/07/04 10:59:36;;;;;;;2.08;0.40;;;22.30;99.90;;;;;;5017263;28;20032;-75
2022/07/04 11:02:09;;;;;;;3.95;0.40;;;22.20;99.90;;;;;;5025771;28;20036;-74
2022/07/04 11:04:55;;;;;;;5.10;0.57;;;22.10;99.90;;;;;;5017477;28;20620;-75
2022/07/04 11:07:23;;;;;;;4.57;0.70;;;22.50;99.90;;;;;;5020943;28;20132;-74
2022/07/04 11:12:56;;;;;;;3.35;0.60;;;22.90;99.90;;;;;;5030798;28;20397;-75
2022/07/04 11:15:25;;;;;;;2.22;0.40;;;22.10;99.90;;;;;;5032127;28;20075;-74
2022/07/04 11:17:52;;;;;;;3.58;0.60;;;21.70;99.90;;;;;;5030657;28;20121;-74
2022/07/04 11:20:19;;;;;;;3.97;0.80;;;21.40;99.90;;;;;;5028943;28;20040;-74
2022/07/04 11:22:44;;;;;;;2.55;0.82;;;21.10;99.90;;;;;;5017315;28;20033;-74
2022/07/04 11:25:11;;;;;;;2.42;0.40;;;21.20;99.90;;;;;;5029491;28;20100;-74
2022/07/04 11:27:41;;;;;;;4.45;0.70;;;21.60;99.90;;;;;;5029343;28;20029;-74
2022/07/04 11:30:08;;;;;;;2.65;0.57;;;21.50;99.90;;;;;;5013610;28;20037;-74
2022/07/04 11:32:36;;;;;;;2.67;0.47;;;22.50;99.90;;;;;;5010889;28;20149;-75
2022/07/04 11:35:04;;;;;;;2.35;0.40;;;22.70;99.90;;;;;;5029320;28;20752;-74
2022/07/04 11:37:30;;;;;;;3.67;0.50;;;22.60;99.90;;;;;;5028911;28;20389;-74
2022/07/04 11:45:52;;;;;;;3.38;0.43;;;21.50;99.90;;;;;;5030086;28;20121;-74
2022/07/04 11:48:25;;;;;;;2.17;0.60;;;21.30;99.90;;;;;;5029140;28;20102;-74
2022/07/04 11:50:51;;;;;;;2.67;0.50;;;21.90;99.90;;;;;;5028716;28;20040;-74
2022/07/04 11:53:18;;;;;;;5.88;0.82;;;22.00;99.90;;;;;;5018508;28;20040;-74
2022/07/04 11:55:59;;;;;;;1.75;0.50;;;22.40;99.90;;;;;;4995354;28;20033;-74
2022/07/04 11:58:25;;;;;;;3.45;0.50;;;23.20;99.90;;;;;;5029861;28;20029;-76
2022/07/04 12:00:52;;;;;;;5.30;0.65;;;23.10;99.90;;;;;;5014497;28;20047;-75
2022/07/04 12:03:17;;;;;;;2.70;0.57;;;23.00;99.90;;;;;;5020598;28;20032;-74
2022/07/04 12:05:43;;;;;;;1.10;0.40;;;23.20;99.90;;;;;;5014770;28;20057;-74
2022/07/04 12:08:09;;;;;;;2.35;0.50;;;22.80;99.90;;;;;;5030297;28;20040;-74
2022/07/04 12:10:36;;;;;;;3.22;0.55;;;22.30;99.90;;;;;;5031992;28;20083;-74
2022/07/04 12:13:11;;;;;;;2.35;0.60;;;22.10;99.90;;;;;;5030759;28;20044;-74
2022/07/04 12:15:41;;;;;;;2.60;0.40;;;22.30;99.90;;;;;;5014013;28;20425;-74
2022/07/04 12:18:17;;;;;;;4.18;0.40;;;22.20;99.90;;;;;;5011515;28;20435;-76
2022/07/04 12:20:43;;;;;;;3.65;0.30;;;22.40;99.90;;;;;;5001149;28;20032;-74
2022/07/04 12:23:09;;;;;;;5.00;0.30;;;23.30;99.90;;;;;;5017441;28;20116;-74
2022/07/04 12:25:38;;;;;;;2.22;0.30;;;23.00;99.90;;;;;;5010891;28;20049;-74
2022/07/04 12:28:12;;;;;;;2.35;0.40;;;22.40;99.90;;;;;;5027945;28;20029;-73
2022/07/04 12:30:48;;;;;;;2.75;0.30;;;23.10;99.90;;;;;;5011413;28;20119;-73
2022/07/04 12:33:13;;;;;;;2.35;0.30;;;22.80;99.90;;;;;;5028345;28;20024;-73
2022/07/04 12:35:42;;;;;;;1.15;0.30;;;22.40;99.90;;;;;;5017277;28;20025;-73
2022/07/04 12:38:14;;;;;;;2.03;0.30;;;22.30;99.90;;;;;;5029429;28;20033;-74
2022/07/04 12:40:52;;;;;;;4.95;0.40;;;21.90;99.90;;;;;;5027824;28;20354;-73
2022/07/04 12:43:18;;;;;;;2.17;0.30;;;21.70;99.90;;;;;;5029044;28;20033;-74
2022/07/04 12:45:50;;;;;;;3.25;0.40;;;21.90;99.90;;;;;;5012392;28;20053;-74
2022/07/04 12:48:21;;;;;;;2.63;0.30;;;22.40;99.90;;;;;;4995570;28;20052;-74
2022/07/04 12:50:48;;;;;;;1.00;0.20;;;22.50;99.90;;;;;;5026713;28;20041;-74
2022/07/04 12:53:15;;;;;;;1.90;0.30;;;23.00;99.90;;;;;;5011291;28;20037;-75
2022/07/04 12:55:42;;;;;;;3.17;0.30;;;23.10;99.90;;;;;;5016617;28;20035;-74
2022/07/04 12:58:08;;;;;;;4.03;0.40;;;23.10;99.90;;;;;;5028093;28;20064;-74
2022/07/04 13:00:34;;;;;;;1.25;0.30;;;23.20;99.90;;;;;;5017379;28;20029;-74
2022/07/04 13:02:59;;;;;;;2.28;0.30;;;22.70;99.90;;;;;;5014127;28;20397;-74
2022/07/04 13:05:26;;;;;;;1.38;0.30;;;22.50;99.90;;;;;;5030328;28;20049;-75
2022/07/04 13:07:52;;;;;;;1.50;0.40;;;22.90;99.90;;;;;;5028887;28;20029;-75
2022/07/04 13:10:18;;;;;;;1.48;0.40;;;23.20;99.90;;;;;;5029579;28;20031;-74
2022/07/04 13:12:43;;;;;;;1.30;0.40;;;23.50;99.90;;;;;;5017967;28;20478;-74